Goessel, Kansas
Current Conditions -  °F | °C
As of 9:35 AM on Monday 22 Dec 2014 (Local Time) from KEWK Reporting Station
Overcast Overcast  
Wind Chill:   Ceiling: 200
Heat Index:   Visibility: 1.7mi
Dew Point:   Wind: 9mph
Humidity: 81%   Direction: 260°W
Pressure: 29.58"   Gusts: NA
Location:  38.25°N, 97.35°W
Report Text: KEWK 221535Z AUTO 26008KT 1 3/4SM OVC002 07/04 A2958 RMK AO1
Loading
Personal Weather Stations






























Interactive Weather Map New forecast layout! Learn more

10-Day Weather Forecast

Advertisements
Track Severe Weather on mobile